Latest Coastal Weather Observations for Hindmarsh Island

IDS60701

Issued at 1:11 pm CST Tuesday 22 August 2017 (issued every 10 minutes, with the page automatically refreshed every 10 minutes)

About coastal observations | Map of coastal stations | Coastal observations for SA | Marine services | Other Formats
Station Details ID: 023894 Name: HINDMARSH ISLAND AWS Lat: -35.52 Lon: 138.82 Height: 11.0 m
Data from the previous 72 hours. | See also: Recent months at Hindmarsh Island
Date/Time
CST
Temp
°C
Wind Pressure Rain since
9am
mm
Weather Cloud Vis
km
Sea
Height
m
Swell
Dir  Spd
kts
Gust
kts
hPa Trend Height
m
Period
s
Dir
22/01:00pm 16.3 WNW 13 18 1019.9 - 0.0 - - - - - - -
22/12:30pm 16.4 WNW 12 16 1020.2 - 0.0 - - - - - - -
22/12:00pm 16.1 W 12 16 1020.5 - 0.0 - - - - - - -
22/11:30am 15.9 NW 11 16 1020.6 - 0.0 - - - - - - -
22/11:00am 15.2 NW 13 16 1020.9 - 0.0 - - - - - - -
22/10:30am 14.6 NNW 12 17 1020.9 - 0.0 - - - - - - -
22/10:00am 13.1 NW 12 18 1021.1 - 0.0 - - - - - - -
22/09:30am 13.4 WNW 9 14 1021.4 - 0.0 - - - - - - -
22/09:00am 13.0 N 4 5 1021.3 - 0.0 - - - - - - -
22/08:30am 11.7 NW 5 6 1021.3 - 0.0 - - - - - - -
22/08:00am 11.5 NNW 5 7 1020.8 - 0.0 - - - - - - -
22/07:30am 11.4 WNW 6 9 1020.5 - 0.0 - - - - - - -
22/07:00am 10.7 WNW 7 10 1020.2 - 0.0 - - - - - - -
22/06:30am 10.6 WNW 8 9 1019.9 - 0.0 - - - - - - -
22/06:00am 10.2 WNW 6 7 1019.6 - 0.0 - - - - - - -
22/05:30am 10.9 W 7 9 1019.4 - 0.0 - - - - - - -
22/05:00am 11.1 WSW 13 18 1019.2 - 0.0 - - - - - - -
22/04:30am 11.2 WNW 8 11 1018.9 - 0.0 - - - - - - -
22/04:00am 11.3 W 9 13 1018.7 - 0.0 - - - - - - -
22/03:30am 11.0 W 8 9 1018.4 - 0.0 - - - - - - -
22/03:00am 11.1 WNW 7 9 1018.3 - 0.0 - - - - - - -
22/02:30am 11.0 WNW 7 9 1018.3 - 0.0 - - - - - - -
22/02:00am 11.3 W 8 11 1018.3 - 0.0 - - - - - - -
22/01:30am 11.4 W 10 13 1018.4 - 0.0 - - - - - - -
22/01:00am 11.9 WSW 10 14 1018.4 - 0.0 - - - - - - -
22/12:30am 12.0 W 8 10 1018.3 - 0.0 - - - - - - -
22/12:00am 11.9 W 9 12 1018.3 - 0.0 - - - - - - -
 
Date/Time
CST
Temp
°C
Wind Pressure Rain since
9am
mm
Weather Cloud Vis
km
Sea
Height
m
Swell
Dir  Spd
kts
Gust
kts
hPa Trend Height
m
Period
s
Dir
21/11:30pm 11.1 WNW 5 6 1018.1 - 0.0 - - - - - - -
21/11:00pm 11.0 W 8 10 1018.1 - 0.0 - - - - - - -
21/10:30pm 9.6 WNW 6 8 1017.9 - 0.0 - - - - - - -
21/10:00pm 9.2 NW 5 6 1017.9 - 0.0 - - - - - - -
21/09:30pm 9.7 NNW 4 5 1017.6 - 0.0 - - - - - - -
21/09:00pm 9.9 NW 5 6 1017.4 - 0.0 - - - - - - -
21/08:30pm 10.1 WNW 5 6 1017.1 - 0.0 - - - - - - -
21/08:00pm 10.8 W 6 7 1016.6 - 0.0 - - - - - - -
21/07:30pm 10.8 WSW 6 9 1016.2 - 0.0 - - - - - - -
21/07:00pm 11.3 SW 9 11 1015.7 - 0.0 - - - - - - -
21/06:30pm 11.2 SW 11 14 1015.5 - 0.0 - - - - - - -
21/06:00pm 11.1 SW 11 13 1014.9 - 0.0 - - - - - - -
21/05:30pm 11.1 SSW 11 13 1014.5 - 0.0 - - - - - - -
21/05:00pm 11.1 SSW 13 16 1013.9 - 0.0 - - - - - - -
21/04:30pm 11.3 SSW 15 17 1013.3 - 0.0 - - - - - - -
21/04:00pm 11.1 SSW 14 16 1013.1 - 0.0 - - - - - - -
21/03:30pm 11.7 SW 14 16 1012.5 - 0.0 - - - - - - -
21/03:00pm 11.4 SSW 13 15 1011.9 - 0.0 - - - - - - -
21/02:30pm 11.2 SW 12 16 1011.6 - 0.0 - - - - - - -
21/02:00pm 11.6 SW 11 14 1011.2 - 0.0 - - - - - - -
21/01:30pm 12.0 SW 7 10 1010.8 - 0.0 - - - - - - -
21/01:00pm 11.6 SW 7 8 1010.6 - 0.0 - - - - - - -
21/12:30pm 11.1 SSE 4 5 1010.3 - 0.0 - - - - - - -
21/12:00pm 10.6 SE 5 6 1010.3 - 0.0 - - - - - - -
21/11:30am 10.2 SE 6 7 1010.1 - 0.0 - - - - - - -
21/11:00am 9.8 E 3 4 1010.1 - 0.0 - - - - - - -
21/10:30am 9.3 ENE 5 7 1009.6 - 0.0 - - - - - - -
21/10:00am 8.8 NE 8 10 1009.2 - 0.0 - - - - - - -
21/09:30am 8.3 ENE 9 11 1009.1 - 0.0 - - - - - - -
21/09:00am 8.1 ENE 9 12 1009.1 - 6.6 - - - - - - -
21/08:30am 7.5 NE 9 13 1008.7 - 6.6 - - - - - - -
21/08:00am 7.3 NE 11 15 1008.2 - 6.6 - - - - - - -
21/07:30am 7.3 NE 14 18 1007.8 - 6.4 - - - - - - -
21/07:00am 7.2 NE 13 16 1007.5 - 6.4 - - - - - - -
21/06:30am 7.3 NE 12 15 1007.5 - 6.4 - - - - - - -
21/06:00am 7.0 NE 9 12 1007.4 - 6.4 - - - - - - -
21/05:30am 7.4 NE 10 13 1007.3 - 6.4 - - - - - - -
21/05:00am 7.5 NNE 9 11 1007.4 - 6.4 - - - - - - -
21/04:30am 7.4 NNE 9 13 1007.6 - 6.0 - - - - - - -
21/04:00am 7.7 NNE 11 15 1007.8 - 5.6 - - - - - - -
21/03:30am 7.8 NE 13 17 1007.8 - 5.6 - - - - - - -
21/03:00am 8.0 NE 16 24 1007.8 - 5.6 - - - - - - -
21/02:30am 8.1 NNE 18 24 1008.1 - 5.6 - - - - - - -
21/02:00am 7.9 NNE 18 24 1008.4 - 5.6 - - - - - - -
21/01:30am 7.8 NNE 18 24 1008.7 - 5.6 - - - - - - -
21/01:00am 7.7 NNE 16 21 1009.2 - 5.6 - - - - - - -
21/12:30am 7.8 NE 18 24 1009.7 - 5.6 - - - - - - -
21/12:00am 7.6 NE 16 23 1010.5 - 5.6 - - - - - - -
 
Date/Time
CST
Temp
°C
Wind Pressure Rain since
9am
mm
Weather Cloud Vis
km
Sea
Height
m
Swell
Dir  Spd
kts
Gust
kts
hPa Trend Height
m
Period
s
Dir
20/11:30pm 8.0 NE 18 24 1010.8 - 5.6 - - - - - - -
20/11:00pm 7.9 NE 16 21 1011.5 - 5.6 - - - - - - -
20/10:30pm 8.0 NNE 16 20 1012.2 - 5.6 - - - - - - -
20/10:00pm 7.8 NNE 14 20 1013.1 - 5.4 - - - - - - -
20/09:30pm 7.8 NNE 14 20 1013.7 - 5.2 - - - - - - -
20/09:00pm 7.9 NNE 12 16 1013.8 - 5.0 Recent precip. - - - - - -
20/08:30pm 7.7 NE 14 20 1014.1 - 4.8 - - - - - - -
20/08:00pm 8.3 NNE 14 20 1014.5 - 4.2 - - - - - - -
20/07:30pm 8.6 NNE 12 16 1014.7 - 3.6 - - - - - - -
20/07:00pm 8.9 N 10 14 1015.4 - 2.6 - - - - - - -
20/06:30pm 9.0 NNE 9 13 1015.2 - 1.0 - - - - - - -
20/06:00pm 9.3 NNE 9 11 1015.6 - 0.4 Recent precip. - - - - - -
20/05:30pm 10.4 N 13 20 1015.6 - 0.0 - - - - - - -
20/05:00pm 11.9 NE 9 11 1014.8 - 0.0 - - - - - - -
20/04:30pm 12.0 NE 10 14 1015.0 - 0.0 - - - - - - -
20/04:00pm 12.4 NNE 11 14 1015.4 - 0.0 - - - - - - -
20/03:30pm 12.4 NNE 12 16 1015.6 - 0.0 - - - - - - -
20/03:00pm 12.4 NE 13 18 1015.7 - 0.0 - - - - - - -
20/02:30pm 12.7 NNE 14 19 1016.5 - 0.0 - - - - - - -
20/02:00pm 12.6 NNE 17 23 1016.8 - 0.0 - - - - - - -
20/01:30pm 12.9 NNE 19 25 1017.1 - 0.0 - - - - - - -
20/01:10pm 12.9 NNE 18 29 1017.6 - 0.0 - - - - - - -
20/01:00pm 13.0 NNE 19 27 1017.7 - 0.0 - - - - - - -
20/12:30pm 13.9 NNE 21 29 1018.7 - 0.0 - - - - - - -
20/12:00pm 13.1 NNE 21 27 1019.7 - 0.0 - - - - - - -
20/11:30am 12.5 NNE 21 27 1020.8 - 0.0 - - - - - - -
20/11:00am 11.7 NNE 18 25 1021.5 - 0.0 - - - - - - -
20/10:30am 10.8 NNE 20 27 1022.0 - 0.0 - - - - - - -
20/10:00am 10.4 NNE 15 21 1022.6 - 0.0 - - - - - - -
20/09:30am 8.5 NNE 15 20 1023.4 - 0.0 - - - - - - -
20/09:00am 7.8 NNE 11 16 1024.1 - 1.8 - - - - - - -
20/08:30am 6.9 NE 12 16 1024.0 - 1.8 - - - - - - -
20/08:00am 5.8 NE 10 12 1024.4 - 1.8 - - - - - - -
20/07:30am 5.4 NNE 10 13 1024.4 - 1.8 - - - - - - -
20/07:00am 4.9 NE 11 14 1024.1 - 1.8 - - - - - - -
20/06:30am 4.9 NE 10 13 1024.1 - 1.8 - - - - - - -
20/06:00am 4.6 NE 9 11 1024.5 - 1.8 - - - - - - -
20/05:30am 4.3 NE 10 11 1024.7 - 1.8 - - - - - - -
20/05:00am 4.4 NNE 9 11 1025.0 - 1.8 - - - - - - -
20/04:30am 5.1 NNE 9 10 1025.0 - 1.8 - - - - - - -
20/04:00am 5.3 NNE 9 10 1025.1 - 1.8 - - - - - - -
20/03:30am 5.6 N 8 10 1025.1 - 1.8 - - - - - - -
20/03:00am 6.2 NNE 8 9 1025.5 - 1.8 - - - - - - -
20/02:30am 6.7 NNE 8 9 1025.7 - 1.8 - - - - - - -
20/02:00am 6.2 N 9 11 1025.7 - 1.8 - - - - - - -
20/01:30am 6.2 N 7 8 1026.1 - 1.8 - - - - - - -
20/01:00am 6.4 N 6 7 1026.4 - 1.8 - - - - - - -
20/12:30am 6.3 N 6 7 1026.7 - 1.8 - - - - - - -
20/12:00am 6.8 N 7 7 1027.0 - 1.8 - - - - - - -
 
Date/Time
CST
Temp
°C
Wind Pressure Rain since
9am
mm
Weather Cloud Vis
km
Sea
Height
m
Swell
Dir  Spd
kts
Gust
kts
hPa Trend Height
m
Period
s
Dir
19/11:30pm 6.6 N 6 8 1027.0 - 1.8 - - - - - - -
19/11:00pm 6.9 N 7 8 1027.2 - 1.8 - - - - - - -
19/10:30pm 7.0 NNW 6 7 1027.5 - 1.8 - - - - - - -
19/10:00pm 7.1 N 5 7 1027.6 - 1.8 - - - - - - -
19/09:30pm 8.1 NE 7 8 1027.7 - 1.8 - - - - - - -
19/09:00pm 7.1 ENE 8 8 1027.8 - 1.8 - - - - - - -
19/08:30pm 7.4 E 7 8 1027.8 - 1.8 - - - - - - -
19/08:00pm 8.5 E 6 7 1028.1 - 1.8 - - - - - - -
19/07:30pm 9.2 ESE 4 5 1028.1 - 1.8 - - - - - - -
19/07:00pm 9.6 ESE 4 5 1028.2 - 1.8 - - - - - - -
19/06:30pm 9.8 SE 4 6 1028.2 - 1.8 - - - - - - -
19/06:00pm 10.4 SSE 7 8 1028.1 - 1.8 - - - - - - -
19/05:30pm 11.0 SSE 7 8 1027.9 - 1.8 - - - - - - -
19/05:00pm 11.6 S 7 8 1027.8 - 1.8 - - - - - - -
19/04:30pm 12.2 SSE 6 9 1027.7 - 1.8 - - - - - - -
19/04:00pm 12.5 SSE 8 9 1027.4 - 1.8 - - - - - - -
19/03:30pm 12.7 SE 9 10 1027.3 - 1.8 - - - - - - -
19/03:00pm 12.8 SSE 8 11 1027.5 - 1.8 - - - - - - -
19/02:30pm 13.2 SSE 9 12 1027.9 - 1.8 - - - - - - -
19/02:00pm 13.2 SSE 7 9 1028.1 - 1.8 - - - - - - -
19/01:30pm 13.0 SE 7 8 1028.6 - 1.8 - - - - - - -

Other Formats:

Comma delimited format used in spreadsheet applications
http://www.bom.gov.au/fwo/IDS60701/IDS60701.94677.axf

JavaScript Object Notation format (JSON) in row-major order
http://www.bom.gov.au/fwo/IDS60701/IDS60701.94677.json